createdAt,value
2023-03-31T00:00:29.686Z,97.47
2023-03-31T00:02:57.759Z,97.06
2023-03-31T00:05:26.323Z,97.02
2023-03-31T00:07:58.170Z,97.46
2023-03-31T00:10:26.103Z,97.05
2023-03-31T00:12:53.979Z,97.32
2023-03-31T00:15:21.518Z,96.66
2023-03-31T00:17:49.594Z,97.01
2023-03-31T00:20:17.461Z,96.95
2023-03-31T00:22:45.551Z,96.37
2023-03-31T00:25:14.815Z,96.37
2023-03-31T00:27:43.745Z,96.18
2023-03-31T00:30:13.192Z,96.68
2023-03-31T00:32:41.670Z,96.82
2023-03-31T00:35:09.578Z,96.59
2023-03-31T00:37:37.351Z,97.48
2023-03-31T00:40:05.793Z,96.64
2023-03-31T00:42:33.629Z,96.77
2023-03-31T00:45:16.546Z,97.62
2023-03-31T00:47:50.564Z,97.77
2023-03-31T00:50:31.035Z,97.89
2023-03-31T00:53:11.899Z,98.93
2023-03-31T00:55:47.835Z,98.24
2023-03-31T00:58:16.317Z,99.62
2023-03-31T01:00:44.471Z,99.03
2023-03-31T01:03:12.345Z,99.71
2023-03-31T01:05:46.708Z,99.28
2023-03-31T01:08:15.032Z,98.45
2023-03-31T01:10:46.733Z,98.43
2023-03-31T01:13:15.738Z,99.84
2023-03-31T01:15:43.891Z,100.00
2023-03-31T01:18:13.512Z,100.00
2023-03-31T01:21:25.952Z,100.00
2023-03-31T01:24:24.174Z,100.00
2023-03-31T01:27:36.753Z,100.00
2023-03-31T01:30:24.503Z,100.00
2023-03-31T01:32:57.873Z,100.00
2023-03-31T01:35:33.349Z,100.00
2023-03-31T01:38:11.274Z,100.00
2023-03-31T01:40:51.365Z,100.00
2023-03-31T01:43:37.757Z,100.00
2023-03-31T01:46:26.240Z,100.00
2023-03-31T01:49:31.782Z,100.00
2023-03-31T01:52:19.993Z,100.00
2023-03-31T01:54:56.027Z,100.00
2023-03-31T01:57:27.030Z,100.00
2023-03-31T02:00:10.894Z,99.68
2023-03-31T02:02:50.280Z,100.00
2023-03-31T02:05:20.771Z,100.00
2023-03-31T02:08:11.155Z,100.00
2023-03-31T02:10:41.216Z,100.00
2023-03-31T02:13:11.383Z,100.00
2023-03-31T02:15:44.763Z,100.00
2023-03-31T02:18:16.284Z,100.00
2023-03-31T02:20:46.981Z,99.17
2023-03-31T02:23:19.228Z,99.81
2023-03-31T02:25:58.091Z,100.00
2023-03-31T02:28:27.653Z,100.00
2023-03-31T02:31:18.510Z,99.51
2023-03-31T02:33:47.349Z,99.89
2023-03-31T02:36:15.357Z,100.00
2023-03-31T02:38:47.336Z,100.00
2023-03-31T02:41:15.530Z,100.00
2023-03-31T02:43:43.217Z,100.00
2023-03-31T02:46:10.906Z,100.00
2023-03-31T02:48:42.738Z,100.00
2023-03-31T02:51:29.176Z,100.00
2023-03-31T02:54:20.242Z,100.00
2023-03-31T02:57:15.086Z,99.22
2023-03-31T02:59:48.918Z,99.19
2023-03-31T03:02:28.585Z,99.52
2023-03-31T03:05:24.383Z,99.22
2023-03-31T03:08:22.936Z,98.90
2023-03-31T03:11:08.259Z,98.51
2023-03-31T03:14:14.416Z,97.69
2023-03-31T03:16:48.892Z,97.52
2023-03-31T03:19:21.340Z,97.24
2023-03-31T03:21:49.763Z,96.36
2023-03-31T03:24:18.015Z,96.32
2023-03-31T03:26:46.021Z,96.30
2023-03-31T03:29:14.309Z,95.65
2023-03-31T03:31:42.918Z,96.49
2023-03-31T03:34:10.635Z,95.59
2023-03-31T03:36:38.994Z,95.76
2023-03-31T03:39:07.880Z,94.65
2023-03-31T03:41:35.744Z,94.64
2023-03-31T03:44:03.683Z,94.18
2023-03-31T03:46:31.472Z,94.28
2023-03-31T03:48:59.231Z,93.50
2023-03-31T03:51:27.148Z,93.28
2023-03-31T03:53:54.802Z,92.25
2023-03-31T03:56:22.476Z,91.78
2023-03-31T03:58:50.726Z,92.64
2023-03-31T04:01:18.328Z,91.97
2023-03-31T04:03:46.499Z,91.72
2023-03-31T04:06:14.140Z,91.63
2023-03-31T04:08:41.787Z,91.43
2023-03-31T04:11:19.188Z,91.32
2023-03-31T04:13:47.375Z,91.35
2023-03-31T04:16:15.372Z,91.79
2023-03-31T04:18:43.166Z,91.85
2023-03-31T04:21:15.253Z,91.53
2023-03-31T04:23:43.404Z,90.93
2023-03-31T04:26:11.850Z,91.27
2023-03-31T04:28:39.624Z,90.80
2023-03-31T04:31:07.507Z,90.08
2023-03-31T04:33:35.504Z,90.29
2023-03-31T04:36:03.435Z,90.39
2023-03-31T04:38:31.613Z,89.66
2023-03-31T04:41:07.296Z,89.62
2023-03-31T04:43:35.715Z,90.26
2023-03-31T04:46:03.654Z,90.00
2023-03-31T04:48:31.440Z,90.42
2023-03-31T04:50:59.810Z,90.76
2023-03-31T04:53:27.934Z,90.78
2023-03-31T04:55:55.704Z,90.87
2023-03-31T04:58:23.782Z,90.67
2023-03-31T05:00:52.404Z,90.31
2023-03-31T05:03:20.741Z,90.07
2023-03-31T05:05:49.257Z,90.25
2023-03-31T05:08:17.315Z,90.31
2023-03-31T05:10:45.139Z,91.38
2023-03-31T05:13:13.022Z,91.34
2023-03-31T05:15:40.636Z,91.83
2023-03-31T05:18:08.280Z,91.95
2023-03-31T05:20:36.246Z,91.67
2023-03-31T05:23:03.897Z,92.11
2023-03-31T05:25:31.423Z,91.43
2023-03-31T05:28:00.301Z,91.67
2023-03-31T05:30:28.480Z,92.32
2023-03-31T05:32:56.363Z,92.20
2023-03-31T05:35:25.597Z,92.03
2023-03-31T05:37:53.463Z,92.27
2023-03-31T05:40:21.155Z,92.86
2023-03-31T05:42:49.055Z,94.12
2023-03-31T05:45:16.676Z,94.70
2023-03-31T05:47:44.403Z,94.78
2023-03-31T05:50:14.547Z,94.79
2023-03-31T05:52:42.392Z,94.49
2023-03-31T05:55:10.482Z,94.14
2023-03-31T05:57:38.484Z,94.45
2023-03-31T06:00:06.869Z,94.79
2023-03-31T06:02:35.225Z,94.57
2023-03-31T06:05:03.016Z,93.08
2023-03-31T06:07:30.698Z,93.16
2023-03-31T06:09:58.602Z,93.03
2023-03-31T06:12:26.276Z,92.94
2023-03-31T06:14:53.942Z,92.66
2023-03-31T06:17:21.877Z,94.54
2023-03-31T06:19:49.555Z,94.63
2023-03-31T06:22:17.196Z,94.17
2023-03-31T06:24:45.104Z,92.52
2023-03-31T06:27:12.740Z,92.15
2023-03-31T06:29:40.412Z,92.88
2023-03-31T06:32:08.463Z,92.77
2023-03-31T06:34:36.197Z,91.30
2023-03-31T06:37:03.814Z,90.97
2023-03-31T06:39:31.893Z,90.28
2023-03-31T06:41:59.559Z,89.91
2023-03-31T06:44:27.286Z,90.88
2023-03-31T06:46:55.333Z,91.69
2023-03-31T06:49:23.102Z,92.81
2023-03-31T06:51:50.806Z,92.04
2023-03-31T06:54:18.769Z,91.34
2023-03-31T06:56:46.434Z,90.12
2023-03-31T06:59:14.176Z,88.48
2023-03-31T07:01:42.262Z,88.93
2023-03-31T07:04:10.130Z,88.57
2023-03-31T07:06:37.801Z,88.68
2023-03-31T07:09:05.917Z,86.65
2023-03-31T07:11:34.104Z,86.88
2023-03-31T07:14:01.866Z,87.84
2023-03-31T07:16:29.823Z,86.72
2023-03-31T07:18:57.557Z,85.83
2023-03-31T07:21:25.968Z,87.83
2023-03-31T07:23:53.849Z,87.53
2023-03-31T07:26:21.534Z,87.98
2023-03-31T07:28:49.318Z,87.81
2023-03-31T07:31:17.640Z,86.07
2023-03-31T07:33:45.256Z,85.30
2023-03-31T07:36:14.165Z,82.34
2023-03-31T07:38:43.847Z,79.37
2023-03-31T07:41:16.960Z,78.88
2023-03-31T07:43:45.414Z,79.66
2023-03-31T07:46:24.578Z,79.46
2023-03-31T07:48:53.330Z,79.79
2023-03-31T07:51:24.241Z,79.67
2023-03-31T07:53:52.907Z,78.43
2023-03-31T07:56:22.379Z,78.44
2023-03-31T07:58:50.734Z,76.68
2023-03-31T08:01:20.957Z,76.52
2023-03-31T08:03:49.033Z,78.32
2023-03-31T08:06:22.237Z,78.29
2023-03-31T08:08:50.729Z,75.91
2023-03-31T08:11:19.036Z,75.43
2023-03-31T08:13:47.244Z,77.06
2023-03-31T08:16:15.257Z,75.58
2023-03-31T08:18:42.900Z,74.41
2023-03-31T08:21:10.699Z,73.84
2023-03-31T08:23:38.773Z,73.87
2023-03-31T08:26:10.440Z,73.66
2023-03-31T08:28:39.152Z,72.09
2023-03-31T08:31:08.346Z,73.34
2023-03-31T08:33:36.809Z,70.37
2023-03-31T08:36:06.502Z,73.26
2023-03-31T08:38:38.934Z,71.97
2023-03-31T08:41:17.514Z,72.35
2023-03-31T08:43:46.500Z,71.87
2023-03-31T08:46:15.714Z,69.98
2023-03-31T08:48:50.954Z,68.03
2023-03-31T08:51:22.832Z,68.42
2023-03-31T08:53:59.950Z,67.93
2023-03-31T08:56:28.262Z,67.77
2023-03-31T08:58:56.255Z,66.47
2023-03-31T09:01:30.449Z,67.02
2023-03-31T09:04:22.193Z,69.01
2023-03-31T09:07:08.324Z,67.34
2023-03-31T09:09:38.969Z,65.96
2023-03-31T09:12:11.872Z,66.10
2023-03-31T09:15:02.335Z,64.73
2023-03-31T09:17:34.023Z,64.64
2023-03-31T09:20:28.363Z,63.52
2023-03-31T09:23:08.735Z,62.73
2023-03-31T09:25:38.755Z,63.16
2023-03-31T09:28:14.071Z,62.32
2023-03-31T09:30:42.554Z,61.60
2023-03-31T09:33:19.227Z,58.58
2023-03-31T09:35:47.915Z,55.92
2023-03-31T09:38:17.469Z,56.45
2023-03-31T09:40:45.512Z,54.85
2023-03-31T09:43:18.709Z,56.13
2023-03-31T09:45:57.705Z,53.26
2023-03-31T09:48:34.400Z,56.96
2023-03-31T09:51:07.524Z,58.85
2023-03-31T09:53:48.684Z,56.14
2023-03-31T09:56:44.549Z,55.09
2023-03-31T09:59:18.469Z,54.98
2023-03-31T10:01:47.968Z,58.11
2023-03-31T10:04:48.608Z,57.28
2023-03-31T10:07:21.425Z,59.04
2023-03-31T10:09:49.602Z,54.72
2023-03-31T10:12:20.330Z,53.72
2023-03-31T10:14:49.769Z,54.02
2023-03-31T10:17:22.934Z,53.57
2023-03-31T10:19:52.912Z,53.85
2023-03-31T10:22:20.643Z,52.73
2023-03-31T10:24:50.018Z,54.53
2023-03-31T10:27:29.391Z,53.24
2023-03-31T10:30:01.640Z,52.64
2023-03-31T10:32:31.143Z,50.39
2023-03-31T10:35:07.938Z,51.14
2023-03-31T10:37:36.795Z,50.28
2023-03-31T10:40:17.525Z,49.71
2023-03-31T10:42:47.061Z,49.93
2023-03-31T10:45:36.475Z,48.39
2023-03-31T10:48:06.327Z,49.95
2023-03-31T10:50:36.580Z,50.16
2023-03-31T10:53:15.441Z,47.38
2023-03-31T10:56:11.271Z,48.83
2023-03-31T10:59:07.511Z,50.20
2023-03-31T11:01:41.752Z,52.03
2023-03-31T11:04:21.493Z,51.99
2023-03-31T11:07:15.714Z,53.30
2023-03-31T11:10:11.698Z,53.07
2023-03-31T11:13:07.319Z,52.55
2023-03-31T11:16:07.422Z,51.44
2023-03-31T11:18:46.447Z,50.76
2023-03-31T11:21:32.211Z,51.77
2023-03-31T11:24:22.971Z,50.43
2023-03-31T11:27:05.420Z,50.98
2023-03-31T11:29:52.761Z,49.17
2023-03-31T11:32:48.512Z,48.04
2023-03-31T11:35:20.012Z,48.16
2023-03-31T11:37:53.570Z,49.91
2023-03-31T11:40:43.554Z,50.31
2023-03-31T11:43:21.338Z,50.08
2023-03-31T11:46:06.654Z,52.28
2023-03-31T11:48:43.727Z,50.09
2023-03-31T11:51:25.842Z,50.93
2023-03-31T11:53:57.247Z,48.31
2023-03-31T11:56:37.724Z,49.65
2023-03-31T11:59:06.573Z,49.02
2023-03-31T12:01:51.364Z,49.06
2023-03-31T12:04:28.437Z,47.50
2023-03-31T12:07:04.134Z,49.80
2023-03-31T12:09:54.304Z,51.00
2023-03-31T12:12:29.806Z,49.16
2023-03-31T12:15:10.492Z,49.47
2023-03-31T12:17:39.046Z,49.67
2023-03-31T12:20:25.636Z,49.24
2023-03-31T12:22:54.648Z,50.43
2023-03-31T12:25:23.202Z,48.85
2023-03-31T12:27:50.970Z,48.91
2023-03-31T12:30:32.556Z,47.85
2023-03-31T12:33:07.793Z,46.95
2023-03-31T12:35:43.239Z,45.86
2023-03-31T12:38:29.772Z,45.94
2023-03-31T12:41:01.538Z,47.00
2023-03-31T12:43:54.502Z,46.48
2023-03-31T12:46:57.276Z,47.03
2023-03-31T12:49:33.260Z,45.10
2023-03-31T12:52:04.483Z,46.33
2023-03-31T12:54:47.439Z,48.25
2023-03-31T12:57:20.968Z,48.55
2023-03-31T13:00:26.569Z,48.71
2023-03-31T13:03:33.432Z,49.07
2023-03-31T13:06:02.576Z,50.83
2023-03-31T13:08:49.708Z,51.36
2023-03-31T13:11:23.300Z,52.54
2023-03-31T13:14:13.940Z,52.38
2023-03-31T13:16:44.094Z,53.29
2023-03-31T13:19:23.537Z,51.90
2023-03-31T13:21:59.072Z,50.55
2023-03-31T13:24:28.256Z,50.52
2023-03-31T13:26:57.519Z,49.76
2023-03-31T13:29:42.713Z,50.35
2023-03-31T13:32:26.673Z,50.43
2023-03-31T13:35:14.728Z,52.11
2023-03-31T13:37:53.497Z,51.31
2023-03-31T13:40:21.313Z,50.73
2023-03-31T13:43:40.194Z,50.38
2023-03-31T13:46:16.920Z,50.91
2023-03-31T13:49:22.979Z,51.55
2023-03-31T13:51:58.011Z,49.53
2023-03-31T13:54:50.435Z,51.08
2023-03-31T13:57:33.316Z,52.12
2023-03-31T14:00:25.675Z,53.39
2023-03-31T14:03:06.487Z,53.74
2023-03-31T14:05:37.561Z,53.97
2023-03-31T14:08:10.452Z,54.79
2023-03-31T14:10:39.635Z,54.48
2023-03-31T14:13:18.211Z,53.73
2023-03-31T14:15:54.852Z,54.28
2023-03-31T14:18:27.371Z,52.42
2023-03-31T14:21:14.123Z,52.51
2023-03-31T14:24:08.581Z,54.48
2023-03-31T14:27:09.793Z,54.62
2023-03-31T14:30:10.691Z,54.68
2023-03-31T14:32:57.110Z,55.43
2023-03-31T14:35:31.173Z,55.70
2023-03-31T14:38:00.890Z,55.64
2023-03-31T14:40:29.048Z,56.05
2023-03-31T14:42:59.718Z,54.63
2023-03-31T14:45:31.059Z,53.52
2023-03-31T14:48:13.886Z,52.64
2023-03-31T14:50:46.380Z,52.21
2023-03-31T14:53:15.930Z,52.44
2023-03-31T14:55:58.166Z,51.85
2023-03-31T14:58:37.143Z,50.58
2023-03-31T15:01:09.139Z,50.63
2023-03-31T15:03:40.205Z,50.11
2023-03-31T15:06:11.070Z,50.17
2023-03-31T15:08:39.241Z,49.91
2023-03-31T15:11:20.784Z,49.88
2023-03-31T15:14:03.503Z,49.81
2023-03-31T15:16:42.069Z,49.16
2023-03-31T15:19:16.453Z,49.40
2023-03-31T15:21:44.508Z,48.98
2023-03-31T15:24:13.583Z,49.19
2023-03-31T15:26:46.617Z,50.29
2023-03-31T15:29:21.273Z,50.83
2023-03-31T15:31:49.663Z,51.54
2023-03-31T15:34:26.010Z,51.37
2023-03-31T15:36:55.330Z,52.48
2023-03-31T15:39:27.450Z,52.67
2023-03-31T15:41:56.370Z,53.15
2023-03-31T15:44:39.228Z,53.06
2023-03-31T15:47:17.668Z,52.72
2023-03-31T15:50:03.496Z,53.18
2023-03-31T15:52:36.370Z,54.36
2023-03-31T15:55:25.612Z,53.82
2023-03-31T15:57:55.135Z,53.65
2023-03-31T16:00:31.611Z,54.17
2023-03-31T16:03:05.265Z,53.56
2023-03-31T16:05:53.567Z,52.74
2023-03-31T16:08:47.398Z,53.15
2023-03-31T16:11:28.393Z,52.27
2023-03-31T16:14:01.552Z,52.27
2023-03-31T16:16:29.837Z,52.44
2023-03-31T16:19:08.020Z,53.08
2023-03-31T16:21:42.255Z,53.95
2023-03-31T16:24:10.457Z,54.16
2023-03-31T16:26:38.308Z,53.97
2023-03-31T16:29:06.103Z,54.67
2023-03-31T16:31:37.176Z,54.82
2023-03-31T16:34:08.338Z,54.73
2023-03-31T16:36:36.732Z,55.23
2023-03-31T16:39:05.480Z,54.98
2023-03-31T16:41:34.549Z,55.00
2023-03-31T16:44:02.669Z,55.56
2023-03-31T16:46:31.798Z,55.01
2023-03-31T16:48:59.782Z,55.50
2023-03-31T16:51:28.029Z,56.22
2023-03-31T16:53:58.343Z,55.86
2023-03-31T16:56:27.353Z,55.89
2023-03-31T16:58:55.448Z,55.85
2023-03-31T17:01:23.359Z,56.36
2023-03-31T17:03:51.964Z,56.80
2023-03-31T17:06:19.638Z,56.13
2023-03-31T17:08:47.751Z,57.22
2023-03-31T17:11:15.664Z,57.23
2023-03-31T17:13:43.691Z,56.91
2023-03-31T17:18:44.605Z,58.59
2023-03-31T17:21:13.887Z,58.54
2023-03-31T17:23:41.992Z,59.13
2023-03-31T17:26:10.789Z,59.15
2023-03-31T17:28:38.914Z,59.40
2023-03-31T17:31:17.904Z,59.73
2023-03-31T17:33:46.310Z,60.23
2023-03-31T17:36:14.639Z,60.03
2023-03-31T17:38:42.338Z,60.42
2023-03-31T17:41:13.374Z,59.87
2023-03-31T17:43:45.350Z,60.13
2023-03-31T17:46:14.011Z,61.14
2023-03-31T17:48:42.307Z,59.85
2023-03-31T17:51:15.281Z,60.25
2023-03-31T17:53:44.213Z,60.28
2023-03-31T17:56:12.882Z,60.54
2023-03-31T17:58:41.021Z,60.84
2023-03-31T18:01:10.656Z,60.00
2023-03-31T18:03:39.193Z,61.33
2023-03-31T18:06:09.431Z,60.83
2023-03-31T18:08:37.640Z,60.59
2023-03-31T18:11:07.228Z,60.50
2023-03-31T18:13:35.921Z,61.16
2023-03-31T18:16:04.241Z,61.61
2023-03-31T18:18:32.296Z,61.30
2023-03-31T18:21:04.560Z,61.34
2023-03-31T18:23:32.974Z,61.58
2023-03-31T18:26:01.419Z,60.96
2023-03-31T18:28:29.437Z,61.72
2023-03-31T18:30:57.747Z,61.76
2023-03-31T18:33:26.168Z,62.32
2023-03-31T18:35:54.096Z,61.53
2023-03-31T18:38:22.118Z,62.79
2023-03-31T18:40:50.886Z,62.93
2023-03-31T18:43:19.978Z,62.87
2023-03-31T18:45:50.142Z,63.20
2023-03-31T18:48:18.406Z,63.18
2023-03-31T18:50:46.183Z,63.27
2023-03-31T18:53:17.384Z,63.61
2023-03-31T18:55:52.855Z,63.17
2023-03-31T18:58:21.294Z,63.07
2023-03-31T19:00:49.544Z,63.52
2023-03-31T19:03:17.485Z,63.00
2023-03-31T19:05:45.760Z,64.37
2023-03-31T19:08:16.871Z,64.57
2023-03-31T19:10:44.983Z,64.65
2023-03-31T19:13:15.349Z,64.36
2023-03-31T19:15:43.373Z,64.85
2023-03-31T19:18:14.222Z,65.88
2023-03-31T19:20:46.531Z,65.47
2023-03-31T19:23:14.527Z,65.06
2023-03-31T19:25:43.018Z,65.91
2023-03-31T19:28:17.622Z,66.33
2023-03-31T19:30:48.412Z,66.84
2023-03-31T19:33:19.666Z,67.49
2023-03-31T19:35:48.734Z,67.68
2023-03-31T19:38:18.217Z,67.70
2023-03-31T19:40:46.292Z,68.15
2023-03-31T19:43:19.719Z,67.93
2023-03-31T19:45:48.338Z,68.38
2023-03-31T19:48:18.072Z,69.16
2023-03-31T19:50:47.215Z,70.10
2023-03-31T19:53:14.941Z,71.31
2023-03-31T19:55:43.186Z,71.64
2023-03-31T19:58:11.113Z,72.51
2023-03-31T20:00:38.955Z,73.30
2023-03-31T20:03:07.138Z,74.06
2023-03-31T20:05:35.568Z,73.90
2023-03-31T20:08:03.534Z,73.86
2023-03-31T20:10:31.815Z,73.77
2023-03-31T20:13:00.044Z,75.30
2023-03-31T20:15:28.451Z,75.15
2023-03-31T20:17:56.529Z,74.79
2023-03-31T20:20:24.637Z,74.43
2023-03-31T20:22:52.520Z,74.16
2023-03-31T20:25:20.776Z,75.87
2023-03-31T20:27:48.703Z,74.30
2023-03-31T20:30:16.753Z,74.82
2023-03-31T20:32:45.058Z,74.34
2023-03-31T20:35:13.200Z,75.27
2023-03-31T20:37:40.927Z,76.93
2023-03-31T20:40:11.087Z,76.49
2023-03-31T20:42:38.932Z,78.45
2023-03-31T20:45:07.338Z,78.54
2023-03-31T20:47:35.475Z,78.11
2023-03-31T20:50:03.279Z,77.64
2023-03-31T20:52:30.926Z,79.13
2023-03-31T20:54:59.370Z,80.45
2023-03-31T20:57:27.030Z,82.38
2023-03-31T20:59:54.750Z,80.61
2023-03-31T21:05:08.823Z,79.64
2023-03-31T21:07:41.010Z,80.46
2023-03-31T21:13:24.153Z,78.98
2023-03-31T21:15:52.282Z,79.08
2023-03-31T21:18:20.254Z,78.82
2023-03-31T21:20:55.566Z,79.13
2023-03-31T21:23:25.022Z,78.73
2023-03-31T21:25:55.145Z,78.60
2023-03-31T21:28:25.700Z,79.78
2023-03-31T21:30:55.419Z,80.17
2023-03-31T21:33:24.499Z,80.58
2023-03-31T21:35:52.763Z,80.18
2023-03-31T21:38:20.553Z,79.13
2023-03-31T21:40:49.228Z,79.98
2023-03-31T21:43:17.061Z,81.07
2023-03-31T21:45:44.981Z,81.03
2023-03-31T21:48:12.999Z,81.59
2023-03-31T21:50:41.315Z,81.72
2023-03-31T21:53:10.883Z,81.41
2023-03-31T21:55:38.822Z,81.41
2023-03-31T21:58:06.419Z,81.73
2023-03-31T22:00:34.186Z,81.59
2023-03-31T22:03:22.015Z,81.34
2023-03-31T22:05:57.164Z,81.51
2023-03-31T22:08:25.863Z,82.56
2023-03-31T22:10:54.421Z,82.27
2023-03-31T22:13:22.913Z,82.06
2023-03-31T22:15:51.354Z,82.96
2023-03-31T22:18:19.525Z,82.98
2023-03-31T22:20:47.662Z,82.47
2023-03-31T22:23:15.981Z,82.26
2023-03-31T22:25:43.573Z,85.67
2023-03-31T22:28:11.335Z,86.80
2023-03-31T22:30:39.395Z,88.20
2023-03-31T22:33:07.179Z,90.31
2023-03-31T22:35:35.417Z,89.92
2023-03-31T22:38:04.466Z,90.22
2023-03-31T22:40:34.807Z,92.16
2023-03-31T22:43:03.133Z,92.06
2023-03-31T22:45:31.027Z,91.26
2023-03-31T22:47:59.069Z,91.12
2023-03-31T22:50:27.005Z,91.62
2023-03-31T22:52:56.651Z,91.80
2023-03-31T22:55:28.308Z,92.25
2023-03-31T22:57:56.361Z,92.03
2023-03-31T23:00:24.045Z,90.82
2023-03-31T23:02:52.168Z,90.18
2023-03-31T23:05:20.352Z,90.87
2023-03-31T23:07:48.092Z,90.80
2023-03-31T23:10:16.175Z,90.58
2023-03-31T23:12:44.148Z,92.65
2023-03-31T23:15:12.010Z,93.25
2023-03-31T23:17:39.808Z,92.93
2023-03-31T23:20:08.136Z,93.45
2023-03-31T23:22:36.266Z,92.53
2023-03-31T23:25:04.550Z,92.94
2023-03-31T23:27:32.502Z,94.70
2023-03-31T23:30:00.186Z,94.94
2023-03-31T23:32:27.942Z,94.83
2023-03-31T23:34:55.933Z,93.82
2023-03-31T23:37:23.622Z,94.63
2023-03-31T23:39:51.295Z,93.96
2023-03-31T23:42:19.236Z,94.70
2023-03-31T23:44:46.830Z,94.83
2023-03-31T23:47:14.431Z,95.31
2023-03-31T23:49:42.329Z,97.79
2023-03-31T23:52:10.075Z,97.71
2023-03-31T23:54:37.638Z,97.66
2023-03-31T23:57:05.684Z,98.41
2023-03-31T23:59:33.646Z,97.44
